Time;durP1;ratioP1;P1;durP2;ratioP2;P2;SDS_P1;SDS_P2;PMS_P1;PMS_P2;Temp;Humidity;BMP_temperature;BMP_pressure;BME280_temperature;BME280_humidity;BME280_pressure;Samples;Min_cycle;Max_cycle;Signal;HPM_P1;HPM_P2
2022/12/02 00:00:49;;;;;;;47.60;19.23;;;4.90;99.90;;;;;;5103109;27;20074;-83
2022/12/02 00:03:17;;;;;;;57.00;23.85;;;5.00;99.90;;;;;;5120074;27;20494;-83
2022/12/02 00:05:43;;;;;;;53.67;23.52;;;4.60;99.90;;;;;;5102931;27;20050;-83
2022/12/02 00:08:27;;;;;;;52.95;22.63;;;5.10;99.90;;;;;;5103405;27;20059;-83
2022/12/02 00:10:53;;;;;;;;;;;3.60;99.90;;;;;;5120233;27;20051;-83
2022/12/02 00:13:26;;;;;;;32.42;13.30;;;3.80;99.90;;;;;;5120348;27;20022;-82
2022/12/02 00:15:57;;;;;;;55.78;22.65;;;4.90;99.90;;;;;;5102425;27;20047;-83
2022/12/02 00:18:23;;;;;;;45.50;19.50;;;3.60;99.90;;;;;;5119866;27;20078;-83
2022/12/02 00:20:49;;;;;;;51.03;23.30;;;3.70;99.90;;;;;;5085587;27;20066;-83
2022/12/02 00:23:14;;;;;;;56.75;22.92;;;4.80;99.90;;;;;;5103191;27;20073;-83
2022/12/02 00:25:50;;;;;;;33.20;14.57;;;3.70;99.90;;;;;;5102164;27;20137;-82
2022/12/02 00:28:16;;;;;;;51.83;21.27;;;3.70;99.90;;;;;;5103934;27;20107;-82
2022/12/02 00:30:42;;;;;;;44.05;17.95;;;3.70;99.90;;;;;;5101610;27;20050;-82
2022/12/02 00:33:07;;;;;;;44.38;18.77;;;5.30;99.90;;;;;;5086214;27;20111;-83
2022/12/02 00:35:33;;;;;;;48.50;21.75;;;4.70;99.90;;;;;;5103271;27;20354;-83
2022/12/02 00:37:59;;;;;;;49.25;20.58;;;3.70;99.90;;;;;;5101995;27;20047;-83
2022/12/02 00:40:24;;;;;;;45.30;17.90;;;3.60;99.90;;;;;;5119506;27;20035;-83
2022/12/02 00:42:50;;;;;;;44.63;21.05;;;3.80;99.90;;;;;;5119431;27;20123;-83
2022/12/02 00:48:00;;;;;;;42.63;19.73;;;4.90;99.90;;;;;;5122155;27;20047;-83
2022/12/02 00:50:26;;;;;;;37.88;13.82;;;3.60;99.90;;;;;;5102190;27;20059;-83
2022/12/02 00:52:51;;;;;;;42.35;15.82;;;3.80;99.90;;;;;;5118883;27;20054;-82
2022/12/02 00:55:17;;;;;;;40.03;16.80;;;3.60;99.90;;;;;;5136728;27;20050;-83
2022/12/02 00:57:43;;;;;;;44.10;18.70;;;3.60;99.90;;;;;;5119258;27;20119;-83
2022/12/02 01:00:09;;;;;;;33.50;13.45;;;4.90;99.90;;;;;;5102122;27;20043;-83
2022/12/02 01:02:35;;;;;;;26.63;11.80;;;3.90;99.90;;;;;;5102406;27;20130;-83
2022/12/02 01:05:01;;;;;;;34.47;13.68;;;3.80;99.90;;;;;;5101462;27;20130;-83
2022/12/02 01:07:26;;;;;;;18.20;7.93;;;4.00;99.90;;;;;;5102292;27;20038;-83
2022/12/02 01:09:52;;;;;;;41.10;16.48;;;4.50;99.90;;;;;;5101627;27;20057;-83
2022/12/02 01:12:18;;;;;;;40.55;17.13;;;3.60;99.90;;;;;;5136037;27;20042;-83
2022/12/02 01:14:43;;;;;;;36.05;16.15;;;4.00;99.90;;;;;;5135972;27;20088;-83
2022/12/02 01:17:09;;;;;;;26.00;13.73;;;3.50;99.90;;;;;;5118870;27;20046;-83
2022/12/02 01:19:34;;;;;;;29.90;13.10;;;4.20;99.90;;;;;;5085120;27;20074;-83
2022/12/02 01:22:00;;;;;;;33.58;13.55;;;4.80;99.90;;;;;;5118530;27;20257;-83
2022/12/02 01:24:26;;;;;;;27.85;12.40;;;5.00;99.90;;;;;;5136214;27;20104;-82
2022/12/02 01:26:51;;;;;;;28.33;13.00;;;3.30;99.90;;;;;;5118647;27;20118;-83
2022/12/02 01:29:17;;;;;;;31.27;13.40;;;3.30;99.90;;;;;;5118840;27;20054;-83
2022/12/02 01:31:43;;;;;;;19.38;8.63;;;4.60;99.90;;;;;;5118434;27;20042;-83
2022/12/02 01:34:08;;;;;;;23.50;11.63;;;3.70;99.90;;;;;;5118344;27;20115;-82
2022/12/02 01:36:34;;;;;;;18.02;8.50;;;5.20;99.90;;;;;;5118956;27;20095;-82
2022/12/02 01:39:00;;;;;;;24.58;12.00;;;4.70;99.90;;;;;;5118435;27;20103;-83
2022/12/02 01:41:25;;;;;;;18.23;9.20;;;4.60;99.90;;;;;;5101509;27;20045;-83
2022/12/02 01:43:51;;;;;;;27.60;12.05;;;4.60;99.90;;;;;;5118247;27;20129;-83
2022/12/02 01:46:16;;;;;;;27.10;12.02;;;4.00;99.90;;;;;;5101590;27;20039;-83
2022/12/02 01:48:42;;;;;;;29.73;12.32;;;3.40;99.90;;;;;;5100795;27;20050;-83
2022/12/02 01:51:08;;;;;;;32.70;14.10;;;3.40;99.90;;;;;;5101233;27;20054;-83
2022/12/02 01:53:33;;;;;;;33.90;14.90;;;3.50;99.90;;;;;;5118522;27;20050;-83
2022/12/02 01:55:59;;;;;;;22.55;9.18;;;5.00;99.90;;;;;;5118189;27;20123;-83
2022/12/02 01:58:26;;;;;;;39.17;15.57;;;3.90;99.90;;;;;;5101670;27;20042;-83
2022/12/02 02:00:55;;;;;;;36.92;15.80;;;3.60;99.90;;;;;;5101059;27;20130;-83
2022/12/02 02:03:21;;;;;;;40.35;16.75;;;3.60;99.90;;;;;;5135207;27;20106;-82
2022/12/02 02:05:47;;;;;;;38.58;15.60;;;4.20;99.90;;;;;;5101350;27;20046;-83
2022/12/02 02:08:12;;;;;;;33.78;15.23;;;3.30;99.90;;;;;;5101273;27;20058;-83
2022/12/02 02:10:39;;;;;;;34.25;14.77;;;3.20;99.90;;;;;;5101220;27;20446;-83
2022/12/02 02:13:04;;;;;;;20.73;8.98;;;3.10;99.90;;;;;;5100594;27;20486;-83
2022/12/02 02:15:30;;;;;;;35.55;14.60;;;3.50;99.90;;;;;;5101068;27;20053;-83
2022/12/02 02:17:56;;;;;;;35.50;13.45;;;3.20;99.90;;;;;;5100744;27;20154;-83
2022/12/02 02:20:23;;;;;;;38.20;14.93;;;3.20;99.90;;;;;;5101215;27;20650;-83
2022/12/02 02:23:16;;;;;;;41.60;16.35;;;4.60;99.90;;;;;;5101168;27;20125;-82
2022/12/02 02:25:43;;;;;;;44.38;16.10;;;3.30;99.90;;;;;;5109197;27;20580;-82
2022/12/02 02:28:09;;;;;;;35.70;14.02;;;3.20;99.90;;;;;;5100460;27;20051;-83
2022/12/02 02:30:35;;;;;;;34.55;14.95;;;3.30;99.90;;;;;;5118001;27;20054;-83
2022/12/02 02:33:02;;;;;;;28.23;11.73;;;3.20;99.90;;;;;;5117173;27;20053;-83
2022/12/02 02:35:27;;;;;;;40.83;17.45;;;4.50;99.90;;;;;;5100987;27;20082;-83
2022/12/02 02:37:53;;;;;;;35.58;15.15;;;4.30;99.90;;;;;;5100888;27;20074;-83
2022/12/02 02:40:19;;;;;;;35.58;13.73;;;4.30;99.90;;;;;;5117436;27;20112;-83
2022/12/02 02:42:46;;;;;;;32.80;13.52;;;4.40;99.90;;;;;;5100885;27;20050;-82
2022/12/02 02:45:11;;;;;;;18.50;8.82;;;2.90;99.90;;;;;;5134674;27;20058;-82
2022/12/02 02:47:37;;;;;;;29.50;12.98;;;4.00;99.90;;;;;;5117395;27;20411;-83
2022/12/02 02:50:03;;;;;;;28.42;11.80;;;4.60;99.90;;;;;;5099975;27;20506;-83
2022/12/02 02:52:29;;;;;;;27.00;11.82;;;3.10;99.90;;;;;;5100850;27;20038;-82
2022/12/02 02:54:54;;;;;;;34.47;14.45;;;4.30;99.90;;;;;;5134104;27;20366;-83
2022/12/02 02:57:20;;;;;;;38.47;15.80;;;4.40;99.90;;;;;;5134591;27;20083;-83
2022/12/02 02:59:46;;;;;;;48.70;18.58;;;4.70;99.90;;;;;;5100756;27;20080;-83
2022/12/02 03:02:11;;;;;;;46.97;17.35;;;3.00;99.90;;;;;;5099871;27;20137;-83
2022/12/02 03:04:38;;;;;;;48.58;19.25;;;3.30;99.90;;;;;;5100662;27;20129;-83
2022/12/02 03:07:03;;;;;;;45.83;19.00;;;3.30;99.90;;;;;;5100119;27;20050;-83
2022/12/02 03:09:29;;;;;;;39.58;15.77;;;3.90;99.90;;;;;;5134395;27;20043;-82
2022/12/02 03:11:55;;;;;;;45.05;16.67;;;3.20;99.90;;;;;;5099770;27;20069;-85
2022/12/02 03:14:20;;;;;;;49.65;18.17;;;4.40;99.90;;;;;;5100914;27;20096;-83
2022/12/02 03:16:46;;;;;;;43.40;18.42;;;3.20;99.90;;;;;;5083954;27;20045;-83
2022/12/02 03:19:12;;;;;;;46.55;19.75;;;3.20;99.90;;;;;;5100070;27;20057;-83
2022/12/02 03:21:37;;;;;;;40.75;15.95;;;3.60;99.90;;;;;;5083056;27;20050;-83
2022/12/02 03:24:03;;;;;;;41.05;16.60;;;3.80;99.90;;;;;;5133929;27;20054;-82
2022/12/02 03:26:29;;;;;;;45.22;18.80;;;3.10;99.90;;;;;;5083452;27;20049;-83
2022/12/02 03:28:55;;;;;;;47.17;19.95;;;3.00;99.90;;;;;;5100196;27;20050;-83
2022/12/02 03:31:20;;;;;;;48.72;21.05;;;4.70;99.90;;;;;;5099544;27;20051;-82
2022/12/02 03:33:46;;;;;;;35.33;15.05;;;4.30;99.90;;;;;;5100016;27;20497;-83
2022/12/02 03:36:12;;;;;;;50.83;21.67;;;2.90;99.90;;;;;;5099815;27;20478;-82
2022/12/02 03:38:37;;;;;;;35.10;13.90;;;2.90;99.90;;;;;;5100030;27;20042;-83
2022/12/02 03:41:03;;;;;;;50.92;21.05;;;2.80;99.90;;;;;;5099203;27;20102;-83
2022/12/02 03:43:29;;;;;;;47.15;19.88;;;2.80;99.90;;;;;;5099804;27;20043;-83
2022/12/02 03:45:55;;;;;;;45.50;17.63;;;4.30;99.90;;;;;;5116943;27;20049;-83
2022/12/02 03:48:21;;;;;;;45.75;19.02;;;4.00;99.90;;;;;;5099383;27;20133;-82
2022/12/02 03:50:47;;;;;;;47.60;19.85;;;2.60;99.90;;;;;;5099719;27;20046;-83
2022/12/02 03:53:13;;;;;;;44.28;18.48;;;3.40;99.90;;;;;;5099461;27;20058;-83
2022/12/02 03:55:39;;;;;;;48.53;20.42;;;3.60;99.90;;;;;;5099894;27;20051;-83
2022/12/02 03:58:06;;;;;;;37.88;14.25;;;4.30;99.90;;;;;;5102084;28;20127;-82
2022/12/02 04:00:32;;;;;;;42.67;19.25;;;2.70;99.90;;;;;;5079568;28;20676;-83
2022/12/02 04:02:58;;;;;;;42.85;17.52;;;4.10;99.90;;;;;;5096195;28;20047;-83
2022/12/02 04:05:24;;;;;;;32.70;13.25;;;2.70;99.90;;;;;;5096657;27;20043;-83
2022/12/02 04:07:49;;;;;;;46.70;19.25;;;4.20;99.90;;;;;;5099962;27;20043;-82
2022/12/02 04:10:15;;;;;;;39.47;16.23;;;3.60;99.90;;;;;;5099337;27;20042;-83
2022/12/02 04:12:41;;;;;;;38.40;14.32;;;2.90;99.90;;;;;;5099767;27;20066;-83
2022/12/02 04:15:07;;;;;;;44.97;19.35;;;4.20;99.90;;;;;;5116284;27;20050;-83
2022/12/02 04:17:32;;;;;;;45.25;18.60;;;2.80;99.90;;;;;;5099669;27;20055;-82
2022/12/02 04:19:58;;;;;;;44.15;18.30;;;2.70;99.90;;;;;;5099357;27;20575;-82
2022/12/02 04:22:23;;;;;;;47.70;20.17;;;4.10;99.90;;;;;;5099141;27;20492;-83
2022/12/02 04:24:49;;;;;;;49.60;19.88;;;4.10;99.90;;;;;;5099492;27;20047;-82
2022/12/02 04:27:15;;;;;;;43.65;16.35;;;3.80;99.90;;;;;;5099248;27;20058;-83
2022/12/02 04:29:40;;;;;;;49.67;20.67;;;4.30;99.90;;;;;;5099428;27;20043;-83
2022/12/02 04:32:06;;;;;;;42.22;15.38;;;2.50;99.90;;;;;;5116074;27;20428;-83
2022/12/02 04:34:32;;;;;;;45.10;19.73;;;3.80;99.90;;;;;;5116382;27;20149;-83
2022/12/02 04:36:57;;;;;;;40.90;16.95;;;3.60;99.90;;;;;;5082345;27;20116;-82
2022/12/02 04:39:23;;;;;;;35.78;15.48;;;2.60;99.90;;;;;;5081947;27;20402;-83
2022/12/02 04:41:48;;;;;;;40.10;15.05;;;4.00;99.90;;;;;;5099479;27;20047;-83
2022/12/02 04:44:14;;;;;;;50.33;18.35;;;2.60;99.90;;;;;;5098863;27;20049;-83
2022/12/02 04:46:40;;;;;;;49.38;19.98;;;2.40;99.90;;;;;;5082662;27;20047;-82
2022/12/02 04:49:05;;;;;;;41.17;17.58;;;2.50;99.90;;;;;;5098971;27;20456;-83
2022/12/02 04:51:31;;;;;;;55.42;21.33;;;2.40;99.90;;;;;;5115670;27;20111;-83
2022/12/02 04:53:57;;;;;;;43.22;16.65;;;2.50;99.90;;;;;;5082293;27;20398;-82
2022/12/02 04:56:23;;;;;;;46.22;19.63;;;3.70;99.90;;;;;;5098720;27;20126;-83
2022/12/02 04:58:48;;;;;;;64.82;23.23;;;2.60;99.90;;;;;;5098750;27;20391;-83
2022/12/02 05:01:14;;;;;;;33.35;13.50;;;2.80;99.90;;;;;;5098171;27;20047;-83
2022/12/02 05:03:40;;;;;;;39.70;17.58;;;2.30;99.90;;;;;;5098793;27;20153;-83
2022/12/02 05:06:05;;;;;;;53.17;20.80;;;2.90;99.90;;;;;;5098726;27;20043;-83
2022/12/02 05:08:31;;;;;;;54.17;19.95;;;2.40;99.90;;;;;;5098375;27;20095;-82
2022/12/02 05:10:57;;;;;;;44.85;16.55;;;3.40;99.90;;;;;;5098649;27;20039;-83
2022/12/02 05:13:22;;;;;;;57.08;23.23;;;2.20;99.90;;;;;;5115019;27;20069;-83
2022/12/02 05:15:48;;;;;;;59.25;21.67;;;3.60;99.90;;;;;;5098534;27;20418;-82
2022/12/02 05:18:13;;;;;;;59.80;23.42;;;3.20;99.90;;;;;;5114821;27;20543;-83
2022/12/02 05:20:39;;;;;;;66.70;23.40;;;3.20;99.90;;;;;;5081247;27;20074;-82
2022/12/02 05:23:05;;;;;;;58.72;22.50;;;2.60;99.90;;;;;;5081178;27;20379;-82
2022/12/02 05:25:30;;;;;;;49.60;19.55;;;3.60;99.90;;;;;;5097752;27;20613;-82
2022/12/02 05:27:56;;;;;;;40.63;15.27;;;2.30;99.90;;;;;;5064802;27;20047;-82
2022/12/02 05:30:22;;;;;;;52.75;20.25;;;4.10;99.90;;;;;;5097893;27;20059;-82
2022/12/02 05:32:47;;;;;;;59.88;23.10;;;2.30;99.90;;;;;;5064793;27;20051;-83
2022/12/02 05:35:13;;;;;;;58.60;22.98;;;3.60;99.90;;;;;;5097737;27;20039;-83
2022/12/02 05:37:39;;;;;;;50.97;20.80;;;2.30;99.90;;;;;;5081568;27;20046;-83
2022/12/02 05:40:05;;;;;;;54.63;22.90;;;4.10;99.90;;;;;;5098338;27;20084;-83
2022/12/02 05:42:30;;;;;;;46.28;18.77;;;2.20;99.90;;;;;;5080889;27;20693;-83
2022/12/02 05:44:59;;;;;;;50.22;18.38;;;3.60;99.90;;;;;;5098049;27;20134;-82
2022/12/02 05:47:26;;;;;;;46.40;17.42;;;3.80;99.90;;;;;;5089653;27;20047;-82
2022/12/02 05:49:52;;;;;;;53.97;20.08;;;2.80;99.90;;;;;;5094477;28;20411;-83
2022/12/02 05:52:20;;;;;;;62.60;20.92;;;3.50;99.90;;;;;;5094659;28;20055;-83
2022/12/02 05:54:46;;;;;;;61.60;24.17;;;2.30;99.90;;;;;;5111686;28;20085;-83
2022/12/02 05:57:12;;;;;;;53.78;19.15;;;2.30;99.90;;;;;;5094585;28;20511;-82
2022/12/02 05:59:37;;;;;;;58.20;23.17;;;2.30;99.90;;;;;;5077274;28;20093;-82
2022/12/02 06:02:10;;;;;;;67.53;25.30;;;3.80;99.90;;;;;;5094219;28;20048;-83
2022/12/02 06:04:36;;;;;;;65.07;24.08;;;2.30;99.90;;;;;;5093808;28;20687;-82
2022/12/02 06:07:08;;;;;;;52.38;20.58;;;2.30;99.90;;;;;;5094408;28;20086;-83
2022/12/02 06:09:33;;;;;;;60.40;22.55;;;3.50;99.90;;;;;;5094242;28;20465;-83
2022/12/02 06:11:59;;;;;;;56.22;22.15;;;2.50;99.90;;;;;;5094310;28;20131;-83
2022/12/02 06:14:27;;;;;;;62.85;24.65;;;3.50;99.90;;;;;;5093994;28;20390;-83
2022/12/02 06:16:55;;;;;;;51.83;18.90;;;2.50;99.90;;;;;;5094064;28;20047;-83
2022/12/02 06:19:46;;;;;;;50.10;19.00;;;2.70;99.90;;;;;;5077042;28;20054;-83
2022/12/02 06:22:30;;;;;;;57.33;22.20;;;2.70;99.90;;;;;;5094486;28;20491;-82
2022/12/02 06:24:58;;;;;;;61.30;21.55;;;2.60;99.90;;;;;;5094363;28;20398;-82
2022/12/02 06:27:24;;;;;;;58.65;22.58;;;2.70;99.90;;;;;;5093718;28;20083;-83
2022/12/02 06:29:51;;;;;;;54.72;21.80;;;3.90;99.90;;;;;;5093608;28;20453;-83
2022/12/02 06:32:21;;;;;;;65.90;22.95;;;2.80;99.90;;;;;;5077036;28;20047;-83
2022/12/02 06:34:49;;;;;;;43.95;16.85;;;2.90;99.90;;;;;;5093937;28;20039;-83
2022/12/02 06:37:17;;;;;;;46.67;16.55;;;2.70;99.90;;;;;;5094164;28;20061;-83
2022/12/02 06:39:43;;;;;;;56.50;20.02;;;2.60;99.90;;;;;;5110245;28;20058;-82
2022/12/02 06:42:27;;;;;;;58.95;22.10;;;2.90;99.90;;;;;;5093910;28;20424;-82
2022/12/02 06:45:05;;;;;;;51.30;20.35;;;3.60;99.90;;;;;;5093206;28;20055;-82
2022/12/02 06:47:35;;;;;;;48.58;17.13;;;2.60;99.90;;;;;;5110370;28;20138;-83
2022/12/02 06:50:03;;;;;;;54.05;19.85;;;2.70;99.90;;;;;;5120425;27;20055;-82
2022/12/02 06:52:33;;;;;;;59.72;21.38;;;3.50;99.90;;;;;;5113394;28;20497;-82
2022/12/02 06:54:59;;;;;;;52.70;20.42;;;2.60;99.90;;;;;;5114135;28;20039;-83
2022/12/02 06:57:24;;;;;;;46.63;18.17;;;2.70;99.90;;;;;;5097174;28;20092;-84
2022/12/02 06:59:50;;;;;;;57.30;21.45;;;4.00;99.90;;;;;;5114110;28;20047;-83
2022/12/02 07:02:26;;;;;;;59.50;22.35;;;2.60;99.90;;;;;;5096749;28;20062;-82
2022/12/02 07:04:52;;;;;;;57.63;21.25;;;2.60;99.90;;;;;;5097091;28;20051;-82
2022/12/02 07:07:35;;;;;;;50.95;18.58;;;2.70;99.90;;;;;;5096822;28;20042;-83
2022/12/02 07:10:29;;;;;;;52.07;17.97;;;4.00;99.90;;;;;;5114095;28;20544;-83
2022/12/02 07:12:56;;;;;;;64.47;25.70;;;2.80;99.90;;;;;;5110010;28;20062;-83
2022/12/02 07:15:28;;;;;;;50.67;18.38;;;2.80;99.90;;;;;;5113546;28;20054;-83
2022/12/02 07:18:17;;;;;;;60.33;21.35;;;2.80;99.90;;;;;;5113548;28;20138;-83
2022/12/02 07:20:44;;;;;;;59.83;20.70;;;2.80;99.90;;;;;;5116025;28;20047;-82
2022/12/02 07:23:18;;;;;;;58.33;20.55;;;3.30;99.90;;;;;;5096398;28;20051;-83
2022/12/02 07:25:44;;;;;;;;;;;4.50;99.90;;;;;;5113770;28;20065;-83
2022/12/02 07:28:27;;;;;;;38.88;14.48;;;3.80;99.90;;;;;;5113323;28;20068;-83
2022/12/02 07:31:01;;;;;;;65.75;22.80;;;3.10;99.90;;;;;;5097055;28;20051;-82
2022/12/02 07:33:27;;;;;;;65.30;21.73;;;4.20;99.90;;;;;;5129938;28;20063;-83
2022/12/02 07:35:52;;;;;;;52.90;17.40;;;2.90;99.90;;;;;;5096110;28;20051;-83
2022/12/02 07:38:18;;;;;;;63.97;22.42;;;4.10;99.90;;;;;;5113294;28;20088;-83
2022/12/02 07:40:44;;;;;;;48.88;16.38;;;2.90;99.90;;;;;;5115701;27;20085;-83
2022/12/02 07:43:10;;;;;;;31.90;13.52;;;3.30;99.90;;;;;;5117251;27;20526;-83
2022/12/02 07:45:35;;;;;;;57.70;20.10;;;3.40;99.90;;;;;;5099896;27;20051;-83
2022/12/02 07:48:01;;;;;;;57.97;19.10;;;4.50;99.90;;;;;;5117013;27;20051;-83
2022/12/02 07:50:26;;;;;;;40.63;15.43;;;3.50;99.90;;;;;;5116866;27;20134;-83
2022/12/02 07:52:52;;;;;;;58.67;20.63;;;3.10;99.90;;;;;;5116828;27;20140;-83
2022/12/02 07:55:18;;;;;;;59.42;21.52;;;3.60;99.90;;;;;;5117103;27;20372;-83
2022/12/02 07:57:43;;;;;;;53.58;18.85;;;3.00;99.90;;;;;;5116471;27;20079;-83
2022/12/02 08:00:10;;;;;;;71.97;23.35;;;3.70;99.90;;;;;;5133734;27;20035;-83
2022/12/02 08:02:35;;;;;;;56.17;19.85;;;2.80;99.90;;;;;;5116578;27;20195;-83
2022/12/02 08:05:01;;;;;;;64.63;24.60;;;3.10;99.90;;;;;;5116962;27;20141;-83
2022/12/02 08:07:27;;;;;;;59.92;21.65;;;3.10;99.90;;;;;;5133844;27;20664;-82
2022/12/02 08:09:52;;;;;;;61.10;21.55;;;2.90;99.90;;;;;;5127751;27;20085;-81
2022/12/02 08:12:18;;;;;;;65.47;23.63;;;2.80;99.90;;;;;;5095413;28;20036;-83
2022/12/02 08:14:43;;;;;;;47.25;17.40;;;3.30;99.90;;;;;;5095540;28;20043;-84
2022/12/02 08:17:09;;;;;;;55.88;21.10;;;3.10;99.90;;;;;;5094184;28;20036;-82
2022/12/02 08:19:35;;;;;;;59.33;20.63;;;2.90;99.90;;;;;;5112026;28;20044;-83
2022/12/02 08:22:01;;;;;;;55.17;19.83;;;2.90;99.90;;;;;;5094254;28;20126;-82
2022/12/02 08:24:26;;;;;;;63.00;23.45;;;2.80;99.90;;;;;;5062411;28;20054;-82
2022/12/02 08:26:52;;;;;;;58.35;21.23;;;4.20;99.90;;;;;;5122751;27;20094;-83
2022/12/02 08:29:17;;;;;;;37.80;16.17;;;3.10;99.90;;;;;;5123346;27;20039;-83
2022/12/02 08:31:43;;;;;;;47.70;18.60;;;2.90;99.90;;;;;;5111621;28;20059;-82
2022/12/02 08:34:09;;;;;;;51.60;21.17;;;4.10;99.90;;;;;;5093528;28;20039;-82
2022/12/02 08:36:35;;;;;;;66.78;23.55;;;4.50;99.90;;;;;;5111110;28;20043;-82
2022/12/02 08:39:04;;;;;;;58.72;21.58;;;3.30;99.90;;;;;;5093466;28;20044;-83
2022/12/02 08:41:31;;;;;;;45.47;17.92;;;4.10;99.90;;;;;;5119253;27;20062;-85
2022/12/02 08:43:58;;;;;;;49.58;18.88;;;4.40;99.90;;;;;;5075894;28;20047;-84
2022/12/02 08:46:24;;;;;;;54.33;18.15;;;4.70;99.90;;;;;;5091551;28;20408;-84
2022/12/02 08:48:49;;;;;;;42.28;16.55;;;3.40;99.90;;;;;;5077349;28;20051;-82
2022/12/02 08:51:15;;;;;;;40.50;15.00;;;4.00;99.90;;;;;;5109364;28;20128;-83
2022/12/02 08:53:41;;;;;;;33.33;14.50;;;3.70;99.90;;;;;;5076983;28;20500;-83
2022/12/02 08:56:06;;;;;;;48.72;17.80;;;2.90;99.90;;;;;;5074332;28;20036;-83
2022/12/02 08:58:32;;;;;;;53.53;17.63;;;2.90;99.90;;;;;;5091505;28;20416;-81
2022/12/02 09:00:58;;;;;;;53.15;19.73;;;2.80;99.90;;;;;;5106405;28;20052;-83
2022/12/02 09:03:23;;;;;;;63.03;22.88;;;3.60;99.90;;;;;;5074207;28;20066;-83
2022/12/02 09:05:49;;;;;;;64.45;21.17;;;3.10;99.90;;;;;;5109756;28;20043;-83
2022/12/02 09:08:14;;;;;;;60.72;19.70;;;2.70;99.90;;;;;;5076011;28;20075;-82
2022/12/02 09:10:40;;;;;;;67.68;20.33;;;2.80;99.90;;;;;;5092384;28;20052;-82
2022/12/02 09:13:06;;;;;;;66.97;21.27;;;3.90;99.90;;;;;;5092771;28;20048;-82
2022/12/02 09:15:31;;;;;;;68.75;21.67;;;3.50;99.90;;;;;;5093624;28;20383;-83
2022/12/02 09:17:57;;;;;;;60.92;20.95;;;2.90;99.90;;;;;;5110311;28;20036;-83
2022/12/02 09:20:23;;;;;;;35.60;12.48;;;2.90;99.90;;;;;;5092742;28;20048;-83
2022/12/02 09:22:48;;;;;;;72.35;22.83;;;3.10;99.90;;;;;;5093083;28;20042;-82
2022/12/02 09:25:14;;;;;;;64.93;21.92;;;3.00;99.90;;;;;;5068356;28;20044;-84
2022/12/02 09:27:40;;;;;;;69.88;22.15;;;2.80;99.90;;;;;;5087827;28;20043;-82
2022/12/02 09:30:06;;;;;;;49.53;18.92;;;2.80;99.90;;;;;;5074362;28;20047;-83
2022/12/02 09:32:32;;;;;;;68.85;23.35;;;2.70;99.90;;;;;;5094034;28;20107;-83
2022/12/02 09:34:58;;;;;;;50.83;17.45;;;3.90;99.90;;;;;;5059426;28;20047;-82
2022/12/02 09:37:23;;;;;;;66.30;23.33;;;3.50;99.90;;;;;;5092036;28;20043;-83
2022/12/02 09:39:49;;;;;;;51.83;17.40;;;3.00;99.90;;;;;;5092060;28;20474;-83
2022/12/02 09:42:15;;;;;;;60.72;22.67;;;3.40;99.90;;;;;;5093375;28;20043;-83
2022/12/02 09:44:40;;;;;;;63.80;20.45;;;2.90;99.90;;;;;;5076102;28;20040;-84
2022/12/02 09:47:06;;;;;;;50.70;19.52;;;2.90;99.90;;;;;;5076450;28;20120;-85
2022/12/02 09:49:32;;;;;;;44.28;17.33;;;4.20;99.90;;;;;;5062975;27;20054;-82
2022/12/02 09:51:59;;;;;;;61.50;20.70;;;2.90;99.90;;;;;;5096731;27;20087;-82
2022/12/02 09:54:25;;;;;;;54.78;18.90;;;4.60;99.90;;;;;;5097241;27;20047;-83
2022/12/02 09:56:50;;;;;;;44.80;17.27;;;2.80;99.90;;;;;;5096694;27;20046;-83
2022/12/02 09:59:16;;;;;;;45.08;17.05;;;3.00;99.90;;;;;;5079882;27;20050;-83
2022/12/02 10:01:44;;;;;;;54.45;19.20;;;3.90;99.90;;;;;;5097330;27;20442;-83
2022/12/02 10:04:11;;;;;;;45.97;15.80;;;3.20;99.90;;;;;;5095311;27;20058;-84
2022/12/02 10:06:37;;;;;;;42.88;18.23;;;3.60;99.90;;;;;;5099138;27;20053;-84
2022/12/02 10:09:02;;;;;;;36.92;15.93;;;4.20;99.90;;;;;;5115097;27;20049;-85
2022/12/02 10:11:33;;;;;;;49.78;19.67;;;3.80;99.90;;;;;;5095058;27;20078;-85
2022/12/02 10:13:59;;;;;;;49.00;18.60;;;3.40;99.90;;;;;;5081186;27;20050;-84
2022/12/02 10:16:28;;;;;;;55.20;19.65;;;3.50;99.90;;;;;;5114315;27;20784;-83
2022/12/02 10:19:03;;;;;;;61.53;24.77;;;3.40;99.90;;;;;;5130087;27;20126;-84
2022/12/02 10:21:29;;;;;;;58.80;22.98;;;4.10;99.90;;;;;;5113512;27;20138;-83
2022/12/02 10:23:57;;;;;;;36.08;14.25;;;4.10;99.90;;;;;;5096277;27;20555;-84
2022/12/02 10:26:22;;;;;;;54.20;20.67;;;3.30;99.90;;;;;;5097175;27;20055;-83
2022/12/02 10:29:06;;;;;;;63.78;24.05;;;4.40;99.90;;;;;;5130838;27;20513;-84
2022/12/02 10:31:31;;;;;;;46.30;20.33;;;3.00;99.90;;;;;;5097742;27;20107;-84
2022/12/02 10:34:02;;;;;;;68.72;25.52;;;3.20;99.90;;;;;;5096075;27;20558;-83
2022/12/02 10:36:41;;;;;;;42.38;15.43;;;3.10;99.90;;;;;;5097313;27;20483;-83
2022/12/02 10:39:23;;;;;;;62.40;23.60;;;3.10;99.90;;;;;;5072938;27;20144;-84
2022/12/02 10:42:06;;;;;;;44.50;17.58;;;3.20;99.90;;;;;;5088940;27;20039;-84
2022/12/02 10:44:37;;;;;;;49.83;18.52;;;3.00;99.90;;;;;;5128089;27;20126;-82
2022/12/02 10:47:23;;;;;;;55.03;21.67;;;2.90;99.90;;;;;;5093425;27;20158;-82
2022/12/02 10:49:52;;;;;;;56.05;19.83;;;3.10;99.90;;;;;;5120651;27;20118;-82
2022/12/02 10:52:26;;;;;;;62.63;21.42;;;3.30;99.90;;;;;;5112318;27;20554;-82
2022/12/02 10:54:52;;;;;;;68.78;26.73;;;2.90;99.90;;;;;;5096858;28;20122;-82
2022/12/02 10:57:26;;;;;;;57.67;18.92;;;3.20;99.90;;;;;;5112460;28;20047;-83
2022/12/02 10:59:53;;;;;;;63.45;23.73;;;3.00;99.90;;;;;;5127822;28;20051;-82
2022/12/02 11:02:48;;;;;;;71.35;24.27;;;2.80;99.90;;;;;;5108039;28;20047;-83
2022/12/02 11:05:27;;;;;;;;;;;3.00;99.90;;;;;;5092253;28;20152;-81
2022/12/02 11:07:59;;;;;;;70.00;24.92;;;3.00;99.90;;;;;;5112287;28;20024;-84
2022/12/02 11:10:46;;;;;;;72.38;27.85;;;3.00;99.90;;;;;;5112417;28;20089;-82
2022/12/02 11:13:11;;;;;;;48.33;18.85;;;4.30;99.90;;;;;;5092055;28;20039;-83
2022/12/02 11:15:47;;;;;;;71.57;26.27;;;3.10;99.90;;;;;;5112926;28;20418;-81
2022/12/02 11:18:22;;;;;;;64.25;21.83;;;2.90;99.90;;;;;;5084533;27;20061;-83
2022/12/02 11:20:52;;;;;;;71.60;26.13;;;2.90;99.90;;;;;;5122042;27;20062;-82
2022/12/02 11:23:27;;;;;;;57.22;21.13;;;4.10;99.90;;;;;;5079949;28;20051;-83
2022/12/02 11:25:58;;;;;;;63.17;26.25;;;3.20;99.90;;;;;;5113285;28;20452;-82
2022/12/02 11:28:26;;;;;;;42.75;15.88;;;3.00;99.90;;;;;;5080672;28;20059;-83
2022/12/02 11:31:13;;;;;;;56.42;22.52;;;3.10;99.90;;;;;;5133714;27;20042;-82
2022/12/02 11:33:48;;;;;;;64.07;25.00;;;4.30;99.90;;;;;;5133123;27;20047;-82
2022/12/02 11:36:18;;;;;;;65.00;25.77;;;3.10;99.90;;;;;;5131681;27;20047;-81
2022/12/02 11:38:50;;;;;;;66.90;25.77;;;3.20;99.90;;;;;;5099562;27;20086;-81
2022/12/02 11:41:19;;;;;;;67.03;26.80;;;4.10;99.90;;;;;;5115718;27;20050;-82
2022/12/02 11:43:45;;;;;;;61.65;22.52;;;2.80;99.90;;;;;;5116232;27;20070;-82
2022/12/02 11:46:14;;;;;;;74.15;29.52;;;2.80;99.90;;;;;;5133126;27;20483;-82
2022/12/02 11:48:51;;;;;;;53.63;21.20;;;2.60;99.90;;;;;;5100235;27;20100;-82
2022/12/02 11:51:29;;;;;;;61.08;21.67;;;2.70;99.90;;;;;;5113080;27;20443;-82
2022/12/02 11:53:54;;;;;;;31.17;13.98;;;2.80;99.90;;;;;;5131588;27;20483;-82
2022/12/02 11:56:20;;;;;;;51.42;20.08;;;2.90;99.90;;;;;;5133016;27;20072;-82
2022/12/02 11:58:46;;;;;;;61.95;22.75;;;3.00;99.90;;;;;;5133032;27;20078;-82
2022/12/02 12:01:13;;;;;;;44.65;19.33;;;4.00;99.90;;;;;;5113370;27;20051;-82
2022/12/02 12:03:43;;;;;;;76.72;27.65;;;4.70;99.90;;;;;;5112562;28;20131;-82
2022/12/02 12:06:15;;;;;;;47.42;19.33;;;3.50;99.90;;;;;;5113073;27;20074;-84
2022/12/02 12:08:48;;;;;;;62.60;26.27;;;3.00;99.90;;;;;;5133022;27;20039;-82
2022/12/02 12:11:27;;;;;;;54.83;23.80;;;3.00;99.90;;;;;;5099655;27;20123;-83
2022/12/02 12:14:05;;;;;;;70.65;28.25;;;2.90;99.90;;;;;;5116125;27;20505;-83
2022/12/02 12:16:35;;;;;;;71.95;25.88;;;2.90;99.90;;;;;;5115707;27;20051;-83
2022/12/02 12:19:21;;;;;;;62.53;25.30;;;3.60;99.90;;;;;;5089292;27;20538;-83
2022/12/02 12:21:53;;;;;;;69.80;27.52;;;3.50;99.90;;;;;;5110362;27;20055;-83
2022/12/02 12:24:22;;;;;;;54.35;23.25;;;4.10;99.90;;;;;;5089373;27;20066;-82
2022/12/02 12:27:08;;;;;;;63.35;27.63;;;3.00;99.90;;;;;;5121662;27;20080;-82
2022/12/02 12:29:34;;;;;;;55.58;22.35;;;4.00;99.90;;;;;;5139940;27;20134;-82
2022/12/02 12:32:00;;;;;;;61.55;25.00;;;2.80;99.90;;;;;;5113675;27;20055;-82
2022/12/02 12:34:27;;;;;;;67.00;26.40;;;4.50;99.90;;;;;;5131447;27;20120;-83
2022/12/02 12:36:52;;;;;;;64.68;27.67;;;2.80;99.90;;;;;;5082874;27;20062;-81
2022/12/02 12:39:18;;;;;;;55.78;24.88;;;3.20;99.90;;;;;;5132471;27;20047;-83
2022/12/02 12:41:44;;;;;;;65.20;28.33;;;3.50;99.90;;;;;;5082204;27;20043;-82
2022/12/02 12:44:09;;;;;;;54.63;23.33;;;3.70;99.90;;;;;;5097906;27;20223;-83